Terminal Aerodrome Forecast
Issued by NWS

Home | Current Version | Previous Version | Text Only | Print | Product List | Glossary On
Versions: 1 2 3 4 5 6 7 8 9 10 11 12 13 14 15 16 17
000
FTUS45 KFGZ 230500
TAFSEZ
TAF
KSEZ 230538Z 2306/2406 VRB06KT P6SM FEW250
     FM232000 22010G20KT P6SM FEW130 SCT250
     FM240200 04008KT P6SM SCT250=

USA.gov is the U.S. government's official web portal to all federal, state and local government web resources and services.